createdAt,value
2022-12-01T00:02:07.082Z,97206.34
2022-12-01T00:05:04.309Z,97201.97
2022-12-01T00:08:01.304Z,97201.31
2022-12-01T00:11:14.717Z,97198.78
2022-12-01T00:14:11.619Z,97196.38
2022-12-01T00:17:08.483Z,97199.91
2022-12-01T00:20:06.972Z,97182.47
2022-12-01T00:23:03.833Z,97186.25
2022-12-01T00:26:05.608Z,97184.19
2022-12-01T00:29:02.439Z,97191.41
2022-12-01T00:31:59.298Z,97188.34
2022-12-01T00:34:56.187Z,97183.63
2022-12-01T00:37:54.275Z,97178.69
2022-12-01T00:40:51.151Z,97176.03
2022-12-01T00:43:48.050Z,97190.16
2022-12-01T00:46:44.870Z,97197.38
2022-12-01T00:49:42.202Z,97201.06
2022-12-01T00:52:39.038Z,97199.56
2022-12-01T00:55:36.043Z,97200.25
2022-12-01T00:58:32.959Z,97199.56
2022-12-01T01:01:29.850Z,97201.19
2022-12-01T01:04:30.615Z,97197.16
2022-12-01T01:07:29.622Z,97206.00
2022-12-01T01:10:26.497Z,97197.16
2022-12-01T01:13:23.377Z,97192.59
2022-12-01T01:16:22.452Z,97196.03
2022-12-01T01:19:19.371Z,97190.50
2022-12-01T01:22:16.278Z,97197.06
2022-12-01T01:25:13.234Z,97194.28
2022-12-01T01:28:10.060Z,97190.16
2022-12-01T01:31:09.190Z,97188.22
2022-12-01T01:34:06.215Z,97191.31
2022-12-01T01:37:03.035Z,97206.25
2022-12-01T01:39:59.871Z,97208.41
2022-12-01T01:42:56.686Z,97211.06
2022-12-01T01:45:53.568Z,97228.25
2022-12-01T01:48:58.791Z,97215.75
2022-12-01T01:51:57.636Z,97224.66
2022-12-01T01:54:55.699Z,97220.91
2022-12-01T01:57:52.637Z,97228.13
2022-12-01T02:00:49.704Z,97227.44
2022-12-01T02:03:47.448Z,97223.31
2022-12-01T02:06:44.337Z,97225.94
2022-12-01T02:09:41.201Z,97226.09
2022-12-01T02:12:56.172Z,97217.78
2022-12-01T02:16:27.515Z,97223.31
2022-12-01T02:20:00.888Z,97215.72
2022-12-01T02:23:08.067Z,97210.81
2022-12-01T02:26:39.828Z,97213.09
2022-12-01T02:30:06.872Z,97204.13
2022-12-01T02:33:38.931Z,97193.25
2022-12-01T02:36:58.276Z,97196.69
2022-12-01T02:40:05.942Z,97202.09
2022-12-01T02:43:27.763Z,97196.69
2022-12-01T02:46:41.880Z,97192.91
2022-12-01T02:49:51.737Z,97191.97
2022-12-01T02:52:49.206Z,97188.34
2022-12-01T02:55:55.685Z,97185.34
2022-12-01T02:58:52.612Z,97184.91
2022-12-01T03:02:42.159Z,97185.34
2022-12-01T03:06:10.842Z,97189.72
2022-12-01T03:09:33.550Z,97180.88
2022-12-01T03:12:42.147Z,97189.72
2022-12-01T03:16:36.623Z,97188.44
2022-12-01T03:19:53.506Z,97185.09
2022-12-01T03:23:02.047Z,97183.25
2022-12-01T03:26:02.951Z,97182.59
2022-12-01T03:29:10.237Z,97172.59
2022-12-01T03:32:29.401Z,97182.72
2022-12-01T03:36:00.787Z,97174.91
2022-12-01T03:39:04.692Z,97165.84
2022-12-01T03:42:06.814Z,97172.03
2022-12-01T03:45:11.920Z,97172.59
2022-12-01T03:48:09.124Z,97170.06
2022-12-01T03:51:31.216Z,97174.91
2022-12-01T03:54:46.716Z,97177.53
2022-12-01T03:57:59.778Z,97166.63
2022-12-01T04:00:59.269Z,97168.81
2022-12-01T04:03:56.209Z,97165.50
2022-12-01T04:06:53.427Z,97172.72
2022-12-01T04:09:53.178Z,97169.97
2022-12-01T04:12:50.240Z,97170.19
2022-12-01T04:15:47.196Z,97176.50
2022-12-01T04:18:44.229Z,97168.09
2022-12-01T04:21:41.195Z,97169.03
2022-12-01T04:24:38.181Z,97170.53
2022-12-01T04:27:35.764Z,97164.91
2022-12-01T04:30:32.830Z,97168.94
2022-12-01T04:33:29.995Z,97171.56
2022-12-01T04:36:30.304Z,97172.94
2022-12-01T04:39:27.178Z,97166.97
2022-12-01T04:42:24.037Z,97170.66
2022-12-01T04:45:20.913Z,97162.72
2022-12-01T04:48:17.760Z,97168.00
2022-12-01T04:51:15.147Z,97168.94
2022-12-01T04:54:12.459Z,97165.59
2022-12-01T04:57:09.393Z,97156.66
2022-12-01T05:00:13.055Z,97173.66
2022-12-01T05:03:14.834Z,97167.00
2022-12-01T05:06:16.928Z,97165.97
2022-12-01T05:09:17.729Z,97176.72
2022-12-01T05:12:17.060Z,97169.97
2022-12-01T05:15:14.432Z,97171.91
2022-12-01T05:18:11.333Z,97174.78
2022-12-01T05:21:10.877Z,97178.88
2022-12-01T05:24:09.677Z,97179.81
2022-12-01T05:27:06.622Z,97176.94
2022-12-01T05:30:04.415Z,97176.84
2022-12-01T05:33:01.452Z,97180.63
2022-12-01T05:35:58.572Z,97173.06
2022-12-01T05:38:55.518Z,97174.31
2022-12-01T05:41:52.683Z,97178.59
2022-12-01T05:44:49.621Z,97185.94
2022-12-01T05:47:46.498Z,97182.81
2022-12-01T05:50:43.702Z,97181.22
2022-12-01T05:53:40.773Z,97183.28
2022-12-01T05:56:37.693Z,97190.28
2022-12-01T05:59:34.583Z,97190.28
2022-12-01T06:02:31.524Z,97193.72
2022-12-01T06:05:29.068Z,97194.06
2022-12-01T06:08:25.945Z,97191.88
2022-12-01T06:11:22.784Z,97196.03
2022-12-01T06:14:19.648Z,97185.56
2022-12-01T06:17:16.475Z,97187.41
2022-12-01T06:20:13.467Z,97189.59
2022-12-01T06:23:10.301Z,97192.34
2022-12-01T06:26:07.199Z,97191.19
2022-12-01T06:29:04.049Z,97196.69
2022-12-01T06:32:01.000Z,97198.66
2022-12-01T06:34:57.897Z,97201.41
2022-12-01T06:37:54.751Z,97202.81
2022-12-01T06:40:51.608Z,97202.91
2022-12-01T06:43:48.502Z,97205.53
2022-12-01T06:46:45.383Z,97207.28
2022-12-01T06:49:42.359Z,97207.59
2022-12-01T06:52:39.285Z,97223.53
2022-12-01T06:55:37.790Z,97221.59
2022-12-01T06:58:34.737Z,97213.91
2022-12-01T07:01:31.975Z,97213.78
2022-12-01T07:04:29.922Z,97197.97
2022-12-01T07:07:26.882Z,97202.00
2022-12-01T07:10:23.742Z,97212.88
2022-12-01T07:13:20.582Z,97214.50
2022-12-01T07:16:17.510Z,97213.91
2022-12-01T07:19:14.388Z,97219.31
2022-12-01T07:22:11.214Z,97225.38
2022-12-01T07:25:08.407Z,97225.41
2022-12-01T07:28:05.386Z,97221.72
2022-12-01T07:31:07.089Z,97229.28
2022-12-01T07:34:05.318Z,97224.59
2022-12-01T07:37:02.604Z,97218.06
2022-12-01T07:39:59.705Z,97227.34
2022-12-01T07:42:56.561Z,97225.50
2022-12-01T07:45:53.481Z,97228.16
2022-12-01T07:48:51.074Z,97230.78
2022-12-01T07:51:47.992Z,97224.47
2022-12-01T07:54:44.866Z,97231.47
2022-12-01T07:57:41.767Z,97234.25
2022-12-01T08:00:38.665Z,97239.97
2022-12-01T08:03:36.637Z,97240.31
2022-12-01T08:06:33.638Z,97240.91
2022-12-01T08:09:30.581Z,97243.75
2022-12-01T08:12:27.491Z,97245.34
2022-12-01T08:15:24.413Z,97242.97
2022-12-01T08:18:21.557Z,97241.69
2022-12-01T08:21:23.028Z,97243.88
2022-12-01T08:24:19.923Z,97243.75
2022-12-01T08:27:16.787Z,97244.56
2022-12-01T08:30:14.541Z,97239.84
2022-12-01T08:33:11.489Z,97248.81
2022-12-01T08:36:09.073Z,97248.00
2022-12-01T08:39:08.883Z,97248.81
2022-12-01T08:42:05.911Z,97252.59
2022-12-01T08:45:03.013Z,97250.63
2022-12-01T08:47:59.956Z,97244.22
2022-12-01T08:51:04.021Z,97244.69
2022-12-01T08:54:01.551Z,97253.28
2022-12-01T08:56:58.448Z,97244.22
2022-12-01T08:59:55.648Z,97248.81
2022-12-01T09:02:52.503Z,97243.97
2022-12-01T09:05:49.420Z,97242.94
2022-12-01T09:08:47.081Z,97249.50
2022-12-01T09:11:45.106Z,97258.41
2022-12-01T09:14:48.100Z,97250.97
2022-12-01T09:17:45.102Z,97259.91
2022-12-01T09:20:42.118Z,97253.50
2022-12-01T09:23:39.657Z,97256.00
2022-12-01T09:26:36.604Z,97259.22
2022-12-01T09:29:33.645Z,97261.31
2022-12-01T09:32:30.548Z,97253.34
2022-12-01T09:35:28.100Z,97262.22
2022-12-01T09:38:25.299Z,97256.47
2022-12-01T09:41:51.018Z,97254.38
2022-12-01T09:44:55.304Z,97255.06
2022-12-01T09:47:55.954Z,97259.66
2022-12-01T09:50:53.425Z,97246.81
2022-12-01T09:53:58.257Z,97243.78
2022-12-01T09:56:56.143Z,97245.50
2022-12-01T09:59:54.688Z,97234.13
2022-12-01T10:02:59.312Z,97229.75
2022-12-01T10:06:27.103Z,97232.06
2022-12-01T10:09:52.092Z,97224.00
2022-12-01T10:12:49.164Z,97224.28
2022-12-01T10:16:17.950Z,97218.09
2022-12-01T10:19:49.921Z,97220.38
2022-12-01T10:23:07.427Z,97216.75
2022-12-01T10:26:14.676Z,97212.81
2022-12-01T10:29:23.028Z,97217.84
2022-12-01T10:32:30.613Z,97217.59
2022-12-01T10:35:36.164Z,97208.09
2022-12-01T10:38:37.577Z,97208.75
2022-12-01T10:41:37.927Z,97218.28
2022-12-01T10:44:35.958Z,97209.56
2022-12-01T10:47:32.923Z,97215.63
2022-12-01T10:50:29.935Z,97205.53
2022-12-01T10:53:30.498Z,97207.75
2022-12-01T10:56:28.052Z,97205.41
2022-12-01T11:00:06.008Z,97202.84
2022-12-01T11:03:04.338Z,97204.06
2022-12-01T11:06:05.877Z,97201.53
2022-12-01T11:09:07.256Z,97201.75
2022-12-01T11:12:05.239Z,97194.47
2022-12-01T11:15:02.933Z,97191.91
2022-12-01T11:18:19.529Z,97193.88
2022-12-01T11:21:27.385Z,97197.50
2022-12-01T11:24:55.588Z,97191.16
2022-12-01T11:27:57.536Z,97192.97
2022-12-01T11:31:08.717Z,97178.72
2022-12-01T11:34:14.599Z,97195.16
2022-12-01T11:37:18.963Z,97188.03
2022-12-01T11:40:54.021Z,97192.13
2022-12-01T11:44:01.125Z,97192.75
2022-12-01T11:47:23.536Z,97188.78
2022-12-01T11:50:27.582Z,97180.41
2022-12-01T11:53:37.134Z,97197.44
2022-12-01T11:56:33.996Z,97180.97
2022-12-01T11:59:30.873Z,97170.19
2022-12-01T12:02:43.503Z,97180.59
2022-12-01T12:09:51.825Z,97175.47
2022-12-01T12:12:59.633Z,97174.28
2022-12-01T12:16:39.634Z,97178.81
2022-12-01T12:20:17.767Z,97168.75
2022-12-01T12:23:49.754Z,97159.06
2022-12-01T12:27:11.014Z,97163.00
2022-12-01T12:30:22.533Z,97163.50
2022-12-01T12:33:45.098Z,97163.88
2022-12-01T12:36:50.857Z,97154.31
2022-12-01T12:40:01.260Z,97153.22
2022-12-01T12:43:33.269Z,97140.38
2022-12-01T12:47:18.488Z,97137.72
2022-12-01T12:50:53.989Z,97135.44
2022-12-01T12:54:11.799Z,97134.28
2022-12-01T12:57:23.246Z,97142.53
2022-12-01T13:00:29.487Z,97138.63
2022-12-01T13:03:56.401Z,97148.16
2022-12-01T13:07:16.152Z,97140.00
2022-12-01T13:10:43.255Z,97137.66
2022-12-01T13:13:57.426Z,97142.22
2022-12-01T13:17:03.527Z,97145.72
2022-12-01T13:20:00.527Z,97142.28
2022-12-01T13:23:01.224Z,97145.16
2022-12-01T13:26:00.748Z,97146.53
2022-12-01T13:28:58.534Z,97138.28
2022-12-01T13:31:55.506Z,97133.78
2022-12-01T13:34:52.705Z,97129.53
2022-12-01T13:37:49.738Z,97138.97
2022-12-01T13:40:47.622Z,97132.28
2022-12-01T13:43:58.233Z,97136.94
2022-12-01T13:47:11.494Z,97134.63
2022-12-01T13:50:36.144Z,97132.34
2022-12-01T13:53:38.576Z,97127.06
2022-12-01T13:56:45.163Z,97128.53
2022-12-01T14:00:24.223Z,97132.94
2022-12-01T14:03:21.204Z,97124.41
2022-12-01T14:06:36.234Z,97129.63
2022-12-01T14:09:48.316Z,97139.47
2022-12-01T14:12:46.327Z,97133.81
2022-12-01T14:15:43.771Z,97124.03
2022-12-01T14:19:00.393Z,97124.84
2022-12-01T14:21:58.000Z,97133.44
2022-12-01T14:24:55.995Z,97122.94
2022-12-01T14:27:56.901Z,97132.34
2022-12-01T14:30:54.249Z,97136.22
2022-12-01T14:33:58.914Z,97147.75
2022-12-01T14:37:19.759Z,97139.34
2022-12-01T14:40:19.279Z,97142.69
2022-12-01T14:43:35.219Z,97137.88
2022-12-01T14:46:44.841Z,97144.50
2022-12-01T14:50:32.824Z,97139.72
2022-12-01T14:53:36.831Z,97130.66
2022-12-01T14:56:36.397Z,97129.66
2022-12-01T14:59:33.569Z,97137.34
2022-12-01T15:02:30.822Z,97135.16
2022-12-01T15:05:30.950Z,97137.22
2022-12-01T15:08:42.026Z,97138.72
2022-12-01T15:11:58.935Z,97131.16
2022-12-01T15:14:56.180Z,97126.78
2022-12-01T15:17:55.788Z,97119.91
2022-12-01T15:21:05.324Z,97120.50
2022-12-01T15:24:05.969Z,97116.69
2022-12-01T15:27:04.198Z,97122.91
2022-12-01T15:30:04.585Z,97124.53
2022-12-01T15:33:02.076Z,97128.31
2022-12-01T15:36:01.405Z,97116.03
2022-12-01T15:39:06.841Z,97114.44
2022-12-01T15:42:05.417Z,97108.38
2022-12-01T15:45:22.258Z,97119.25
2022-12-01T15:48:28.472Z,97125.47
2022-12-01T15:51:27.708Z,97118.44
2022-12-01T15:54:26.574Z,97120.75
2022-12-01T15:57:24.867Z,97124.41
2022-12-01T16:00:23.094Z,97132.66
2022-12-01T16:03:19.992Z,97127.84
2022-12-01T16:06:17.875Z,97128.44
2022-12-01T16:09:34.444Z,97122.94
2022-12-01T16:12:36.244Z,97128.22
2022-12-01T16:15:43.945Z,97126.25
2022-12-01T16:18:41.027Z,97130.88
2022-12-01T16:21:50.216Z,97130.59
2022-12-01T16:24:53.968Z,97125.22
2022-12-01T16:27:55.843Z,97130.03
2022-12-01T16:30:53.497Z,97131.78
2022-12-01T16:34:13.924Z,97142.06
2022-12-01T16:37:19.916Z,97137.38
2022-12-01T16:40:17.177Z,97138.88
2022-12-01T16:43:20.626Z,97133.59
2022-12-01T16:46:17.662Z,97135.53
2022-12-01T16:49:14.620Z,97138.88
2022-12-01T16:55:52.834Z,97135.69
2022-12-01T16:58:49.767Z,97136.91
2022-12-01T17:01:46.768Z,97129.09
2022-12-01T17:04:43.666Z,97144.72
2022-12-01T17:07:40.756Z,97140.47
2022-12-01T17:10:46.673Z,97157.91
2022-12-01T17:13:43.561Z,97152.75
2022-12-01T17:16:40.434Z,97147.38
2022-12-01T17:19:37.444Z,97149.06
2022-12-01T17:22:34.778Z,97153.31
2022-12-01T17:25:32.427Z,97150.19
2022-12-01T17:28:29.298Z,97152.16
2022-12-01T17:31:26.656Z,97151.34
2022-12-01T17:34:23.763Z,97150.53
2022-12-01T17:37:21.425Z,97152.50
2022-12-01T17:40:18.532Z,97154.34
2022-12-01T17:43:15.452Z,97157.94
2022-12-01T17:46:13.483Z,97156.09
2022-12-01T17:49:10.674Z,97162.41
2022-12-01T17:52:08.403Z,97160.97
2022-12-01T17:55:06.239Z,97169.78
2022-12-01T17:58:03.690Z,97165.81
2022-12-01T18:01:00.592Z,97167.44
2022-12-01T18:03:58.893Z,97174.06
2022-12-01T18:06:55.716Z,97164.81
2022-12-01T18:09:52.705Z,97168.94
2022-12-01T18:12:49.548Z,97164.94
2022-12-01T18:15:46.714Z,97169.84
2022-12-01T18:18:44.078Z,97163.78
2022-12-01T18:21:41.337Z,97163.34
2022-12-01T18:24:38.290Z,97169.91
2022-12-01T18:27:35.204Z,97169.41
2022-12-01T18:30:33.919Z,97168.69
2022-12-01T18:33:33.439Z,97159.44
2022-12-01T18:36:32.938Z,97172.59
2022-12-01T18:39:29.864Z,97179.84
2022-12-01T18:42:26.791Z,97167.97
2022-12-01T18:45:23.714Z,97163.16
2022-12-01T18:48:20.986Z,97171.44
2022-12-01T18:51:18.933Z,97163.84
2022-12-01T18:54:16.764Z,97169.59
2022-12-01T18:57:14.609Z,97168.22
2022-12-01T19:00:12.520Z,97166.38
2022-12-01T19:03:09.429Z,97158.00
2022-12-01T19:06:06.804Z,97162.06
2022-12-01T19:09:06.585Z,97168.28
2022-12-01T19:12:03.664Z,97162.78
2022-12-01T19:15:00.511Z,97156.63
2022-12-01T19:17:57.360Z,97152.00
2022-12-01T19:20:54.349Z,97160.03
2022-12-01T19:23:52.378Z,97157.25
2022-12-01T19:26:49.263Z,97148.47
2022-12-01T19:29:46.169Z,97145.19
2022-12-01T19:32:43.686Z,97144.34
2022-12-01T19:35:40.580Z,97148.09
2022-12-01T19:38:38.191Z,97149.97
2022-12-01T19:41:35.286Z,97147.78
2022-12-01T19:44:32.238Z,97148.94
2022-12-01T19:47:33.280Z,97150.88
2022-12-01T19:50:30.314Z,97158.16
2022-12-01T19:53:33.125Z,97155.69
2022-12-01T19:56:31.585Z,97157.69
2022-12-01T19:59:28.440Z,97156.28
2022-12-01T20:02:29.178Z,97161.00
2022-12-01T20:05:26.502Z,97151.59
2022-12-01T20:08:23.327Z,97149.38
2022-12-01T20:11:20.296Z,97145.50
2022-12-01T20:14:17.146Z,97158.19
2022-12-01T20:17:16.060Z,97150.94
2022-12-01T20:20:13.319Z,97151.53
2022-12-01T20:23:10.244Z,97153.97
2022-12-01T20:26:08.150Z,97149.97
2022-12-01T20:29:15.117Z,97150.31
2022-12-01T20:32:13.365Z,97146.97
2022-12-01T20:35:10.489Z,97153.31
2022-12-01T20:38:07.336Z,97163.00
2022-12-01T20:41:05.872Z,97161.56
2022-12-01T20:44:07.185Z,97165.53
2022-12-01T20:47:04.744Z,97168.50
2022-12-01T20:50:01.600Z,97157.16
2022-12-01T20:52:58.555Z,97156.78
2022-12-01T20:55:55.803Z,97162.41
2022-12-01T20:58:52.860Z,97152.16
2022-12-01T21:01:49.700Z,97157.47
2022-12-01T21:04:46.547Z,97151.97
2022-12-01T21:07:43.424Z,97156.94
2022-12-01T21:10:45.843Z,97152.16
2022-12-01T21:13:42.807Z,97143.78
2022-12-01T21:16:40.084Z,97140.63
2022-12-01T21:20:17.941Z,97151.06
2022-12-01T21:23:18.012Z,97144.16
2022-12-01T21:26:16.256Z,97147.81
2022-12-01T21:29:26.485Z,97137.16
2022-12-01T21:32:32.212Z,97142.13
2022-12-01T21:35:29.137Z,97143.97
2022-12-01T21:38:26.411Z,97141.53
2022-12-01T21:41:28.945Z,97137.50
2022-12-01T21:44:37.556Z,97138.88
2022-12-01T21:47:35.154Z,97143.47
2022-12-01T21:50:32.814Z,97145.19
2022-12-01T21:53:37.431Z,97135.59
2022-12-01T21:56:34.280Z,97145.91
2022-12-01T21:59:31.245Z,97134.16
2022-12-01T22:02:49.998Z,97130.38
2022-12-01T22:06:21.273Z,97137.94
2022-12-01T22:09:34.153Z,97141.44
2022-12-01T22:12:31.943Z,97128.59
2022-12-01T22:15:41.256Z,97132.25
2022-12-01T22:18:41.288Z,97141.00
2022-12-01T22:21:43.549Z,97135.47
2022-12-01T22:24:41.017Z,97129.50
2022-12-01T22:27:43.248Z,97132.69
2022-12-01T22:30:40.972Z,97127.84
2022-12-01T22:33:38.626Z,97126.72
2022-12-01T22:36:35.478Z,97126.13
2022-12-01T22:39:34.101Z,97125.84
2022-12-01T22:42:33.412Z,97124.03
2022-12-01T22:45:30.449Z,97114.22
2022-12-01T22:48:40.700Z,97122.44
2022-12-01T22:51:50.861Z,97128.69
2022-12-01T22:54:50.148Z,97127.00
2022-12-01T22:57:47.335Z,97121.09
2022-12-01T23:00:44.284Z,97118.97
2022-12-01T23:03:41.106Z,97122.94
2022-12-01T23:06:56.227Z,97109.38
2022-12-01T23:09:53.397Z,97106.09
2022-12-01T23:12:53.432Z,97117.28
2022-12-01T23:15:53.690Z,97108.59
2022-12-01T23:18:50.648Z,97106.69
2022-12-01T23:21:47.494Z,97098.06
2022-12-01T23:24:44.784Z,97103.53
2022-12-01T23:27:43.062Z,97101.22
2022-12-01T23:30:43.501Z,97086.59
2022-12-01T23:33:40.386Z,97088.75
2022-12-01T23:36:37.260Z,97087.66
2022-12-01T23:39:35.908Z,97089.22
2022-12-01T23:42:32.915Z,97078.91
2022-12-01T23:45:31.811Z,97078.97
2022-12-01T23:48:35.975Z,97071.22
2022-12-01T23:51:47.233Z,97068.28
2022-12-01T23:54:44.405Z,97071.25
2022-12-01T23:57:41.252Z,97074.66
